createdAt,value
2022-09-24T00:00:54.496Z,9.20
2022-09-24T00:03:45.320Z,8.73
2022-09-24T00:06:36.952Z,8.00
2022-09-24T00:09:26.773Z,9.13
2022-09-24T00:12:15.370Z,9.10
2022-09-24T00:15:03.824Z,8.73
2022-09-24T00:17:52.492Z,9.40
2022-09-24T00:20:41.010Z,7.93
2022-09-24T00:23:29.435Z,8.00
2022-09-24T00:26:37.322Z,8.13
2022-09-24T00:29:26.332Z,8.30
2022-09-24T00:32:14.751Z,8.97
2022-09-24T00:35:03.176Z,8.87
2022-09-24T00:37:51.627Z,7.40
2022-09-24T00:40:40.411Z,8.90
2022-09-24T00:43:33.989Z,9.60
2022-09-24T00:46:25.805Z,9.53
2022-09-24T00:49:16.417Z,8.57
2022-09-24T00:52:04.836Z,8.60
2022-09-24T00:54:53.685Z,8.50
2022-09-24T00:57:43.237Z,8.03
2022-09-24T01:00:33.224Z,8.50
2022-09-24T01:03:24.625Z,8.33
2022-09-24T01:06:13.220Z,7.53
2022-09-24T01:09:01.976Z,8.37
2022-09-24T01:11:56.168Z,7.77
2022-09-24T01:14:56.229Z,7.93
2022-09-24T01:17:50.476Z,8.50
2022-09-24T01:20:54.285Z,8.50
2022-09-24T01:24:01.898Z,8.17
2022-09-24T01:26:58.115Z,8.53
2022-09-24T01:29:58.750Z,7.93
2022-09-24T01:32:50.097Z,8.63
2022-09-24T01:35:39.773Z,8.80
2022-09-24T01:38:31.298Z,9.27
2022-09-24T01:41:20.398Z,9.43
2022-09-24T01:44:09.285Z,9.57
2022-09-24T01:46:59.514Z,8.50
2022-09-24T01:49:48.045Z,9.47
2022-09-24T01:52:42.182Z,9.77
2022-09-24T01:55:35.045Z,9.90
2022-09-24T01:58:27.864Z,9.40
2022-09-24T02:01:20.313Z,9.83
2022-09-24T02:04:14.861Z,9.60
2022-09-24T02:07:06.128Z,9.80
2022-09-24T02:09:54.544Z,10.00
2022-09-24T02:12:44.031Z,9.20
2022-09-24T02:15:34.119Z,10.87
2022-09-24T02:18:27.202Z,10.33
2022-09-24T02:21:19.869Z,9.30
2022-09-24T02:24:10.889Z,10.13
2022-09-24T02:27:00.028Z,10.10
2022-09-24T02:29:48.643Z,10.00
2022-09-24T02:32:38.008Z,10.10
2022-09-24T02:35:25.472Z,10.23
2022-09-24T02:38:18.673Z,9.43
2022-09-24T02:41:08.086Z,9.40
2022-09-24T02:43:56.541Z,9.47
2022-09-24T02:46:45.247Z,9.10
2022-09-24T02:49:34.098Z,9.60
2022-09-24T02:52:22.731Z,9.20
2022-09-24T02:55:13.055Z,9.43
2022-09-24T02:58:01.481Z,10.40
2022-09-24T03:00:49.961Z,9.67
2022-09-24T03:03:38.403Z,9.10
2022-09-24T03:06:27.318Z,9.90
2022-09-24T03:09:15.885Z,10.10
2022-09-24T03:12:05.757Z,9.10
2022-09-24T03:14:54.155Z,9.57
2022-09-24T03:17:42.588Z,10.57
2022-09-24T03:20:31.252Z,10.13
2022-09-24T03:23:19.895Z,10.07
2022-09-24T03:26:08.746Z,9.40
2022-09-24T03:28:58.557Z,9.80
2022-09-24T03:31:46.059Z,9.63
2022-09-24T03:34:34.513Z,8.33
2022-09-24T03:37:22.929Z,9.57
2022-09-24T03:40:11.581Z,8.90
2022-09-24T03:43:00.051Z,9.20
2022-09-24T03:45:50.100Z,8.97
2022-09-24T03:48:40.135Z,9.63
2022-09-24T03:51:28.641Z,8.93
2022-09-24T03:54:17.460Z,9.50
2022-09-24T03:57:06.088Z,9.00
2022-09-24T03:59:55.173Z,9.27
2022-09-24T04:02:45.345Z,8.90
2022-09-24T04:05:33.859Z,9.97
2022-09-24T04:08:23.509Z,8.90
2022-09-24T04:11:11.994Z,8.37
2022-09-24T04:14:00.402Z,9.60
2022-09-24T04:16:48.831Z,9.10
2022-09-24T04:19:39.689Z,9.17
2022-09-24T04:22:29.037Z,9.63
2022-09-24T04:25:18.001Z,9.50
2022-09-24T04:28:07.788Z,9.03
2022-09-24T04:30:56.209Z,7.97
2022-09-24T04:33:44.644Z,9.53
2022-09-24T04:36:34.427Z,8.50
2022-09-24T04:39:26.641Z,9.10
2022-09-24T04:42:18.105Z,8.83
2022-09-24T04:45:07.864Z,8.70
2022-09-24T04:47:57.708Z,8.50
2022-09-24T04:50:46.669Z,11.00
2022-09-24T04:53:37.309Z,11.23
2022-09-24T04:56:25.851Z,10.63
2022-09-24T04:59:14.291Z,9.97
2022-09-24T05:02:08.658Z,9.70
2022-09-24T05:04:57.873Z,9.27
2022-09-24T05:07:46.433Z,9.83
2022-09-24T05:10:36.245Z,9.27
2022-09-24T05:13:24.796Z,9.03
2022-09-24T05:16:13.338Z,9.70
2022-09-24T05:19:01.960Z,8.47
2022-09-24T05:21:50.609Z,9.43
2022-09-24T05:24:39.026Z,9.17
2022-09-24T05:27:27.814Z,9.60
2022-09-24T05:30:16.945Z,8.77
2022-09-24T05:33:05.385Z,9.07
2022-09-24T05:35:54.932Z,8.83
2022-09-24T05:38:43.369Z,8.53
2022-09-24T05:41:31.823Z,10.07
2022-09-24T05:44:21.716Z,9.60
2022-09-24T05:47:10.176Z,9.07
2022-09-24T05:49:58.615Z,9.33
2022-09-24T05:52:47.066Z,9.17
2022-09-24T05:55:36.028Z,9.17
2022-09-24T05:58:24.835Z,9.37
2022-09-24T06:01:14.630Z,8.50
2022-09-24T06:04:08.434Z,8.60
2022-09-24T06:06:57.384Z,9.70
2022-09-24T06:09:46.020Z,8.47
2022-09-24T06:12:37.149Z,9.80
2022-09-24T06:15:26.487Z,9.27
2022-09-24T06:18:16.393Z,9.60
2022-09-24T06:21:07.660Z,9.30
2022-09-24T06:23:56.118Z,9.77
2022-09-24T06:26:44.563Z,9.40
2022-09-24T06:29:33.153Z,9.53
2022-09-24T06:32:21.633Z,9.40
2022-09-24T06:35:11.523Z,9.23
2022-09-24T06:37:59.948Z,8.90
2022-09-24T06:40:49.322Z,10.20
2022-09-24T06:43:38.020Z,9.73
2022-09-24T06:46:28.358Z,8.90
2022-09-24T06:49:16.857Z,8.90
2022-09-24T06:52:06.674Z,9.30
2022-09-24T06:54:55.938Z,8.60
2022-09-24T06:57:44.436Z,9.23
2022-09-24T07:00:33.175Z,9.23
2022-09-24T07:03:22.327Z,9.30
2022-09-24T07:06:10.798Z,9.87
2022-09-24T07:09:01.170Z,8.90
2022-09-24T07:11:52.903Z,8.93
2022-09-24T07:14:41.405Z,8.53
2022-09-24T07:17:34.036Z,9.50
2022-09-24T07:20:22.634Z,10.40
2022-09-24T07:23:12.799Z,9.23
2022-09-24T07:26:02.634Z,9.80
2022-09-24T07:28:51.089Z,8.67
2022-09-24T07:31:39.531Z,9.73
2022-09-24T07:34:28.084Z,9.60
2022-09-24T07:37:16.545Z,9.20
2022-09-24T07:40:05.348Z,9.30
2022-09-24T07:42:55.864Z,9.20
2022-09-24T07:45:45.218Z,9.27
2022-09-24T07:48:33.634Z,11.23
2022-09-24T07:51:22.117Z,9.30
2022-09-24T07:54:16.348Z,8.67
2022-09-24T07:57:11.996Z,8.90
2022-09-24T08:00:01.895Z,9.10
2022-09-24T08:02:51.869Z,9.80
2022-09-24T08:05:45.095Z,9.63
2022-09-24T08:08:33.662Z,11.80
2022-09-24T08:11:22.306Z,10.13
2022-09-24T08:14:10.833Z,10.60
2022-09-24T08:17:01.543Z,9.03
2022-09-24T08:19:51.875Z,9.43
2022-09-24T08:22:40.777Z,8.57
2022-09-24T08:25:29.286Z,8.60
2022-09-24T08:28:19.662Z,9.43
2022-09-24T08:31:08.987Z,9.97
2022-09-24T08:33:58.934Z,9.43
2022-09-24T08:36:47.390Z,10.40
2022-09-24T08:39:35.868Z,9.47
2022-09-24T08:42:31.193Z,9.97
2022-09-24T08:45:37.351Z,9.73
2022-09-24T08:48:29.603Z,9.07
2022-09-24T08:51:20.555Z,9.30
2022-09-24T08:54:12.313Z,9.33
2022-09-24T08:57:01.597Z,8.60
2022-09-24T08:59:51.966Z,9.53
2022-09-24T09:02:44.983Z,10.10
2022-09-24T09:05:49.593Z,10.17
2022-09-24T09:09:05.713Z,9.00
2022-09-24T09:12:00.636Z,10.10
2022-09-24T09:14:52.512Z,8.83
2022-09-24T09:17:45.592Z,9.70
2022-09-24T09:20:37.136Z,9.00
2022-09-24T09:23:31.251Z,8.83
2022-09-24T09:26:21.423Z,8.93
2022-09-24T09:29:11.148Z,10.40
2022-09-24T09:32:05.499Z,9.33
2022-09-24T09:34:59.929Z,10.43
2022-09-24T09:37:52.872Z,9.67
2022-09-24T09:40:44.666Z,9.83
2022-09-24T09:43:35.516Z,9.67
2022-09-24T09:46:27.105Z,10.90
2022-09-24T09:49:15.659Z,9.90
2022-09-24T09:52:07.097Z,9.43
2022-09-24T09:54:55.904Z,9.93
2022-09-24T09:57:44.566Z,10.30
2022-09-24T10:00:36.545Z,9.27
2022-09-24T10:03:26.842Z,10.10
2022-09-24T10:06:23.841Z,10.20
2022-09-24T10:09:15.010Z,9.70
2022-09-24T10:12:11.175Z,10.43
2022-09-24T10:15:01.487Z,9.60
2022-09-24T10:17:53.520Z,9.80
2022-09-24T10:20:48.114Z,10.30
2022-09-24T10:23:38.595Z,9.70
2022-09-24T10:26:38.674Z,9.97
2022-09-24T10:29:50.643Z,9.23
2022-09-24T10:32:40.789Z,9.57
2022-09-24T10:35:33.621Z,10.50
2022-09-24T10:38:24.981Z,9.00
2022-09-24T10:41:20.955Z,9.87
2022-09-24T10:44:12.120Z,10.23
2022-09-24T10:47:09.005Z,10.30
2022-09-24T10:50:12.236Z,9.73
2022-09-24T10:53:08.805Z,9.57
2022-09-24T10:56:02.009Z,10.30
2022-09-24T10:59:08.748Z,11.40
2022-09-24T11:02:08.656Z,9.90
2022-09-24T11:04:57.944Z,9.50
2022-09-24T11:07:55.570Z,11.03
2022-09-24T11:11:02.602Z,10.43
2022-09-24T11:13:58.555Z,8.47
2022-09-24T11:17:04.265Z,10.03
2022-09-24T11:20:04.391Z,8.50
2022-09-24T11:23:22.985Z,8.30
2022-09-24T11:26:18.708Z,9.20
2022-09-24T11:29:37.357Z,9.20
2022-09-24T11:32:32.219Z,9.80
2022-09-24T11:35:59.545Z,8.70
2022-09-24T11:39:01.764Z,8.47
2022-09-24T11:41:58.703Z,8.93
2022-09-24T11:45:12.917Z,8.87
2022-09-24T11:48:14.178Z,8.53
2022-09-24T11:51:12.124Z,7.97
2022-09-24T11:54:07.756Z,8.10
2022-09-24T11:57:02.012Z,8.70
2022-09-24T11:59:56.824Z,8.77
2022-09-24T12:02:49.794Z,7.57
2022-09-24T12:05:40.699Z,7.50
2022-09-24T12:08:32.534Z,8.00
2022-09-24T12:11:25.215Z,9.27
2022-09-24T12:14:19.650Z,8.10
2022-09-24T12:17:12.074Z,8.37
2022-09-24T12:20:02.609Z,7.67
2022-09-24T12:23:00.097Z,8.17
2022-09-24T12:25:49.437Z,7.77
2022-09-24T12:28:59.038Z,8.30
2022-09-24T12:32:13.284Z,6.73
2022-09-24T12:35:08.321Z,8.00
2022-09-24T12:38:01.326Z,6.80
2022-09-24T12:41:05.883Z,7.57
2022-09-24T12:43:59.124Z,7.10
2022-09-24T12:46:52.952Z,7.10
2022-09-24T12:49:41.523Z,6.67
2022-09-24T12:52:35.363Z,6.77
2022-09-24T12:55:25.398Z,6.40
2022-09-24T12:58:28.626Z,6.83
2022-09-24T13:01:30.321Z,6.83
2022-09-24T13:04:28.967Z,7.10
2022-09-24T13:07:35.571Z,6.60
2022-09-24T13:10:26.668Z,6.60
2022-09-24T13:13:25.618Z,7.27
2022-09-24T13:16:19.388Z,6.50
2022-09-24T13:19:25.225Z,6.33
2022-09-24T13:22:27.745Z,6.10
2022-09-24T13:25:23.661Z,5.97
2022-09-24T13:28:22.576Z,6.63
2022-09-24T13:31:15.754Z,6.60
2022-09-24T13:34:13.898Z,5.93
2022-09-24T13:37:04.745Z,6.03
2022-09-24T13:39:57.846Z,6.40
2022-09-24T13:42:48.839Z,6.67
2022-09-24T13:45:41.558Z,5.57
2022-09-24T13:48:34.589Z,7.20
2022-09-24T13:51:26.416Z,5.97
2022-09-24T13:54:21.936Z,6.03
2022-09-24T13:57:13.969Z,5.40
2022-09-24T14:00:16.208Z,5.50
2022-09-24T14:03:17.167Z,5.47
2022-09-24T14:06:11.992Z,5.80
2022-09-24T14:09:01.019Z,5.77
2022-09-24T14:11:50.404Z,5.73
2022-09-24T14:14:44.584Z,6.17
2022-09-24T14:17:33.051Z,5.57
2022-09-24T14:20:22.184Z,5.10
2022-09-24T14:23:17.143Z,5.40
2022-09-24T14:26:06.287Z,5.47
2022-09-24T14:28:54.958Z,5.60
2022-09-24T14:31:46.243Z,5.87
2022-09-24T14:34:37.739Z,5.40
2022-09-24T14:37:28.800Z,5.90
2022-09-24T14:40:18.399Z,6.00
2022-09-24T14:43:06.891Z,5.63
2022-09-24T14:46:03.194Z,4.77
2022-09-24T14:48:53.249Z,7.20
2022-09-24T14:51:51.913Z,7.00
2022-09-24T14:54:41.625Z,6.90
2022-09-24T14:57:37.065Z,7.20
2022-09-24T15:00:27.585Z,6.40
2022-09-24T15:03:17.667Z,7.40
2022-09-24T15:06:15.378Z,6.90
2022-09-24T15:09:05.562Z,6.60
2022-09-24T15:11:55.323Z,6.60
2022-09-24T15:14:54.956Z,6.20
2022-09-24T15:17:45.394Z,6.73
2022-09-24T15:20:35.464Z,10.37
2022-09-24T15:23:25.395Z,8.10
2022-09-24T15:26:13.864Z,8.30
2022-09-24T15:29:02.810Z,7.50
2022-09-24T15:31:51.338Z,7.50
2022-09-24T15:34:39.793Z,6.97
2022-09-24T15:37:29.657Z,7.37
2022-09-24T15:40:22.810Z,8.20
2022-09-24T15:43:19.710Z,7.60
2022-09-24T15:46:08.193Z,8.30
2022-09-24T15:48:56.759Z,8.17
2022-09-24T15:51:45.181Z,8.10
2022-09-24T15:54:33.914Z,7.43
2022-09-24T15:57:23.919Z,8.07
2022-09-24T16:00:17.450Z,7.00
2022-09-24T16:03:06.070Z,8.00
2022-09-24T16:05:55.568Z,7.53
2022-09-24T16:08:43.991Z,7.97
2022-09-24T16:11:32.728Z,7.20
2022-09-24T16:14:22.551Z,6.80
2022-09-24T16:17:11.168Z,6.37
2022-09-24T16:19:59.618Z,5.50
2022-09-24T16:22:48.040Z,6.80
2022-09-24T16:25:36.561Z,7.30
2022-09-24T16:28:25.594Z,7.47
2022-09-24T16:31:15.517Z,7.20
2022-09-24T16:34:04.305Z,7.07
2022-09-24T16:36:52.809Z,6.97
2022-09-24T16:39:41.451Z,7.93
2022-09-24T16:42:29.924Z,8.07
2022-09-24T16:45:19.595Z,7.30
2022-09-24T16:48:09.417Z,6.57
2022-09-24T16:51:03.878Z,7.30
2022-09-24T16:53:55.341Z,8.10
2022-09-24T16:56:43.864Z,8.53
2022-09-24T16:59:32.354Z,7.57
2022-09-24T17:02:20.871Z,8.23
2022-09-24T17:05:10.953Z,7.63
2022-09-24T17:07:59.416Z,8.07
2022-09-24T17:10:51.615Z,7.30
2022-09-24T17:13:40.963Z,7.40
2022-09-24T17:16:30.559Z,7.97
2022-09-24T17:19:19.105Z,13.83
2022-09-24T17:22:08.878Z,11.50
2022-09-24T17:24:57.308Z,12.97
2022-09-24T17:27:45.897Z,12.43
2022-09-24T17:30:34.362Z,9.57
2022-09-24T17:33:42.493Z,8.93
2022-09-24T17:36:32.396Z,8.23
2022-09-24T17:39:22.269Z,9.10
2022-09-24T17:42:10.724Z,8.30
2022-09-24T17:44:59.156Z,9.57
2022-09-24T17:48:00.539Z,10.77
2022-09-24T17:50:54.454Z,10.80
2022-09-24T17:53:43.269Z,10.93
2022-09-24T17:56:34.172Z,9.60
2022-09-24T17:59:26.675Z,11.67
2022-09-24T18:02:15.557Z,10.47
2022-09-24T18:05:04.547Z,10.70
2022-09-24T18:07:53.871Z,10.70
2022-09-24T18:10:42.342Z,9.50
2022-09-24T18:13:34.974Z,8.93
2022-09-24T18:16:25.328Z,9.00
2022-09-24T18:19:16.828Z,8.20
2022-09-24T18:22:06.630Z,9.90
2022-09-24T18:24:56.166Z,10.43
2022-09-24T18:27:46.404Z,9.40
2022-09-24T18:30:36.227Z,9.63
2022-09-24T18:33:24.987Z,11.50
2022-09-24T18:36:15.650Z,12.03
2022-09-24T18:39:05.423Z,8.97
2022-09-24T18:41:54.108Z,7.70
2022-09-24T18:44:44.166Z,7.40
2022-09-24T18:47:38.220Z,8.83
2022-09-24T18:50:28.385Z,6.00
2022-09-24T18:53:16.867Z,6.47
2022-09-24T18:56:06.656Z,5.97
2022-09-24T18:58:58.529Z,6.13
2022-09-24T19:01:48.724Z,5.50
2022-09-24T19:04:38.745Z,6.17
2022-09-24T19:07:27.215Z,4.63
2022-09-24T19:10:15.862Z,4.20
2022-09-24T19:13:06.326Z,5.33
2022-09-24T19:15:54.942Z,4.73
2022-09-24T19:18:43.637Z,5.20
2022-09-24T19:21:33.529Z,4.90
2022-09-24T19:24:22.163Z,4.50
2022-09-24T19:27:10.701Z,4.50
2022-09-24T19:29:59.284Z,4.93
2022-09-24T19:32:47.789Z,4.53
2022-09-24T19:35:36.457Z,4.50
2022-09-24T19:38:28.398Z,4.67
2022-09-24T19:41:21.238Z,5.50
2022-09-24T19:44:10.755Z,5.13
2022-09-24T19:46:59.415Z,5.93
2022-09-24T19:49:47.892Z,6.00
2022-09-24T19:52:36.414Z,6.27
2022-09-24T19:55:28.757Z,6.10
2022-09-24T19:58:17.360Z,4.90
2022-09-24T20:01:07.392Z,5.33
2022-09-24T20:03:56.961Z,5.87
2022-09-24T20:06:45.469Z,5.20
2022-09-24T20:09:33.998Z,5.47
2022-09-24T20:12:23.830Z,6.30
2022-09-24T20:15:12.456Z,6.10
2022-09-24T20:18:01.525Z,5.33
2022-09-24T20:20:50.063Z,5.00
2022-09-24T20:23:38.601Z,5.60
2022-09-24T20:26:45.646Z,6.13
2022-09-24T20:29:35.477Z,5.90
2022-09-24T20:32:24.961Z,5.70
2022-09-24T20:35:13.894Z,4.97
2022-09-24T20:38:02.358Z,4.70
2022-09-24T20:40:50.886Z,4.87
2022-09-24T20:43:40.414Z,5.60
2022-09-24T20:46:30.392Z,5.63
2022-09-24T20:49:22.485Z,5.83
2022-09-24T20:52:11.133Z,5.50
2022-09-24T20:54:59.563Z,4.93
2022-09-24T20:57:49.041Z,5.10
2022-09-24T21:00:47.947Z,4.80
2022-09-24T21:03:44.595Z,5.30
2022-09-24T21:06:33.980Z,4.90
2022-09-24T21:09:22.589Z,5.97
2022-09-24T21:12:11.057Z,5.13
2022-09-24T21:14:59.959Z,5.37
2022-09-24T21:18:11.538Z,5.50
2022-09-24T21:20:58.283Z,5.17
2022-09-24T21:23:48.620Z,6.17
2022-09-24T21:26:38.346Z,5.90
2022-09-24T21:29:26.859Z,5.40
2022-09-24T21:32:15.571Z,6.10
2022-09-24T21:35:04.120Z,6.00
2022-09-24T21:37:53.912Z,5.67
2022-09-24T21:40:43.030Z,6.60
2022-09-24T21:43:34.798Z,6.00
2022-09-24T21:46:24.157Z,5.43
2022-09-24T21:49:13.380Z,5.73
2022-09-24T21:52:04.911Z,5.73
2022-09-24T21:54:54.738Z,5.70
2022-09-24T21:57:43.167Z,6.27
2022-09-24T22:00:31.682Z,5.43
2022-09-24T22:03:20.757Z,7.00
2022-09-24T22:06:09.530Z,6.40
2022-09-24T22:08:59.254Z,6.60
2022-09-24T22:11:49.292Z,7.17
2022-09-24T22:14:37.729Z,7.17
2022-09-24T22:17:26.178Z,8.20
2022-09-24T22:20:14.691Z,7.60
2022-09-24T22:23:03.123Z,7.40
2022-09-24T22:25:55.263Z,7.40
2022-09-24T22:28:45.643Z,11.67
2022-09-24T22:31:34.234Z,11.83
2022-09-24T22:34:40.501Z,16.37
2022-09-24T22:37:29.386Z,15.87
2022-09-24T22:40:18.340Z,10.97
2022-09-24T22:43:06.811Z,9.50
2022-09-24T22:45:59.075Z,9.23
2022-09-24T22:48:48.050Z,7.97
2022-09-24T22:51:38.358Z,7.97
2022-09-24T22:54:26.855Z,7.33
2022-09-24T22:57:15.409Z,7.63
2022-09-24T23:00:04.915Z,8.97
2022-09-24T23:02:54.773Z,9.00
2022-09-24T23:05:45.203Z,8.80
2022-09-24T23:08:34.911Z,8.20
2022-09-24T23:11:24.436Z,8.30
2022-09-24T23:14:15.451Z,7.90
2022-09-24T23:17:04.119Z,9.03
2022-09-24T23:19:54.521Z,10.63
2022-09-24T23:22:43.017Z,10.23
2022-09-24T23:25:31.431Z,9.40
2022-09-24T23:28:19.886Z,9.20
2022-09-24T23:31:11.533Z,8.87
2022-09-24T23:34:01.335Z,9.20
2022-09-24T23:36:51.236Z,8.70
2022-09-24T23:39:39.962Z,9.30
2022-09-24T23:42:28.906Z,9.40
2022-09-24T23:45:18.802Z,8.07
2022-09-24T23:48:07.235Z,8.83
2022-09-24T23:50:55.796Z,8.80
2022-09-24T23:53:45.783Z,8.60
2022-09-24T23:56:34.506Z,8.40
2022-09-24T23:59:22.948Z,8.10
